Hub


Voltar

 INFORMAÇÕES METEOROLÓGICAS

METAR FOR NTAA


ADDS - METARS form results

(1002 UTC 18 June 2019)
Data provider http://aviationweather.gov/metar/data/
 
METAR text: NTAA 181000Z VRB03KT 9999 FEW033 BKN300 26/20 Q1013 NOSIG
Conditions at: NTAA (TAHITI-FAAA POLY, WS) observed 1000 UTC 18 June 2019
Temperature: 26.0°C (79°F)
Dewpoint: 20.0°C (68°F) [RH = 70%]
Pressure (altimeter): 29.91 inches Hg (1013.0 mb)
Winds: variable direction winds at 3 MPH (3 knots; 1.5 m/s)
Visibility: 6 or more miles (10+ km)
Ceiling: 30000 feet AGL
Clouds: few clouds at 3300 feet AGL
broken clouds at 30000 feet AGL
Weather: no significant weather observed at this time

METAR text: NTAA 180930Z 17005KT 9999 FEW033 BKN300 26/20 Q1013 NOSIG
Conditions at: NTAA (TAHITI-FAAA POLY, WS) observed 0930 UTC 18 June 2019
Temperature: 26.0°C (79°F)
Dewpoint: 20.0°C (68°F) [RH = 70%]
Pressure (altimeter): 29.91 inches Hg (1013.0 mb)
Winds: from the S (170 degrees) at 6 MPH (5 knots; 2.6 m/s)
Visibility: 6 or more miles (10+ km)
Ceiling: 30000 feet AGL
Clouds: few clouds at 3300 feet AGL
broken clouds at 30000 feet AGL
Weather: no significant weather observed at this time

Forecast for: NTAA (TAHITI-FAAA POLY, WS)
Text: TAF NTAA 180500Z 1806/1912 VRB03KT 9999 FEW023 SCT050 BKN300
Forecast period: 0600 UTC 18 June 2019 to 1200 UTC 19 June 2019
Forecast type: FROM: standard forecast or significant change
Winds: variable direction winds at 3 MPH (3 knots; 1.5 m/s)
Visibility: 6 or more miles 10+ km)
Ceiling: 30000 feet AGL
Clouds: few clouds at 2300 feet AGL
scattered clouds at 5000 feet AGL
broken clouds at 30000 feet AGL
Weather: no significant weather forecast for this period
Text: TEMPO 1819/1904 06015KT
Forecast period: 1900 UTC 18 June 2019 to 0400 UTC 19 June 2019
Forecast type: TEMPORARY: The following changes expected for less than half the time period
Winds: from the ENE (60 degrees) at 17 MPH (15 knots; 7.7 m/s)
Visibility: missing
Ceiling: unknown
Clouds: missing
Weather: no significant weather forecast for this period


 MAPA DO AEROPORTO


 INFORMAÇÕES DA PISTA

Pista 04 Tamanho da pista 11360 ft Largura da pista 148 ft
Elevação da pista 5 ft Ranhura da pista 1120 ft Proa da pista 54
Pista 22 Tamanho da pista 11360 ft Largura da pista 148 ft
Elevação da pista 5 ft Ranhura da pista 390 ft Proa da pista 234

 FREQUÊNCIAS DO AEROPORTO

Tipo APP Nome APP Frequência 118.1 MHZ
Tipo ATIS Nome ATIS Frequência 128.8 MHZ
Tipo GND Nome GND Frequência 121.9 MHZ
Tipo TWR Nome TWR Frequência 118.1 MHZ

 AUXÍLIOS DE NAVEGAÇÃO PRÓXIMOS AO AEROPORTO

Tipo NDB Nome Tahiti Faaa Frequência 305 KHZ
Tipo VOR-DME Nome Tahiti Faaa Frequência 112900 KHZ